createdAt,value
2017-10-26T00:00:37.957Z,0
2017-10-26T00:01:39.380Z,0
2017-10-26T00:02:40.801Z,0
2017-10-26T00:03:42.237Z,0
2017-10-26T00:04:43.653Z,0
2017-10-26T00:05:45.081Z,0
2017-10-26T00:06:46.509Z,0
2017-10-26T00:07:47.929Z,0
2017-10-26T00:08:49.352Z,0
2017-10-26T00:09:50.776Z,0
2017-10-26T00:10:52.194Z,0
2017-10-26T00:11:53.609Z,0
2017-10-26T00:12:55.033Z,0
2017-10-26T00:13:56.451Z,0
2017-10-26T00:14:57.868Z,0
2017-10-26T00:15:59.284Z,0
2017-10-26T00:17:00.697Z,0
2017-10-26T00:18:02.123Z,0
2017-10-26T00:19:03.568Z,0
2017-10-26T00:20:04.992Z,0
2017-10-26T00:21:06.411Z,0
2017-10-26T00:22:07.845Z,0
2017-10-26T00:23:09.293Z,0
2017-10-26T00:24:10.715Z,0
2017-10-26T00:25:12.138Z,0
2017-10-26T00:26:13.588Z,0
2017-10-26T00:27:15.005Z,0
2017-10-26T00:28:16.431Z,0
2017-10-26T00:29:17.861Z,0
2017-10-26T00:30:19.289Z,0
2017-10-26T00:31:20.707Z,0
2017-10-26T00:32:22.129Z,0
2017-10-26T00:33:23.549Z,0
2017-10-26T00:34:24.962Z,0
2017-10-26T00:35:26.387Z,0
2017-10-26T00:36:27.811Z,0
2017-10-26T00:37:29.236Z,0
2017-10-26T00:38:30.664Z,0
2017-10-26T00:39:32.084Z,0
2017-10-26T00:40:33.511Z,0
2017-10-26T00:41:34.930Z,0
2017-10-26T00:42:36.349Z,0
2017-10-26T00:43:37.771Z,0
2017-10-26T00:44:39.194Z,0
2017-10-26T00:45:40.627Z,0
2017-10-26T00:46:42.045Z,0
2017-10-26T00:47:43.468Z,0
2017-10-26T00:48:44.895Z,0
2017-10-26T00:49:46.313Z,0
2017-10-26T00:50:47.729Z,0
2017-10-26T00:51:49.144Z,0
2017-10-26T00:52:50.561Z,0
2017-10-26T00:53:51.984Z,0
2017-10-26T00:54:53.422Z,0
2017-10-26T00:55:54.836Z,0
2017-10-26T00:56:56.254Z,0
2017-10-26T00:57:57.678Z,0
2017-10-26T00:58:59.110Z,0
2017-10-26T01:00:00.534Z,0
2017-10-26T01:01:01.965Z,0
2017-10-26T01:02:03.382Z,0
2017-10-26T01:03:04.798Z,0
2017-10-26T01:04:06.219Z,0
2017-10-26T01:05:07.649Z,0
2017-10-26T01:06:09.058Z,0
2017-10-26T01:07:10.483Z,0
2017-10-26T01:08:11.910Z,0
2017-10-26T01:09:13.331Z,0
2017-10-26T01:10:14.755Z,0
2017-10-26T01:11:16.173Z,0
2017-10-26T01:12:17.590Z,0
2017-10-26T01:13:19.012Z,0
2017-10-26T01:14:20.454Z,0
2017-10-26T01:15:21.885Z,0
2017-10-26T01:16:23.306Z,0
2017-10-26T01:17:24.732Z,0
2017-10-26T01:18:26.162Z,0
2017-10-26T01:19:27.577Z,0
2017-10-26T01:20:28.999Z,0
2017-10-26T01:21:30.420Z,0
2017-10-26T01:22:31.838Z,0
2017-10-26T01:23:34.363Z,0
2017-10-26T01:24:35.786Z,0
2017-10-26T01:25:37.206Z,0
2017-10-26T01:26:38.640Z,0
2017-10-26T01:27:40.056Z,0
2017-10-26T01:28:41.484Z,0
2017-10-26T01:29:44.436Z,0
2017-10-26T01:30:45.864Z,0
2017-10-26T01:31:47.302Z,0
2017-10-26T01:32:48.748Z,0
2017-10-26T01:33:50.166Z,0
2017-10-26T01:34:51.583Z,0
2017-10-26T01:35:53.007Z,0
2017-10-26T01:36:54.425Z,0
2017-10-26T01:37:55.854Z,0
2017-10-26T01:38:57.269Z,0
2017-10-26T01:39:58.691Z,0
2017-10-26T01:41:00.113Z,0
2017-10-26T01:42:02.867Z,0
2017-10-26T01:43:06.760Z,0
2017-10-26T01:44:08.191Z,0
2017-10-26T01:45:09.615Z,0
2017-10-26T01:46:11.037Z,0
2017-10-26T01:47:12.462Z,0
2017-10-26T01:48:13.887Z,0
2017-10-26T01:49:15.303Z,0
2017-10-26T01:50:16.724Z,0
2017-10-26T01:51:18.154Z,0
2017-10-26T01:52:19.572Z,0
2017-10-26T01:53:23.755Z,0
2017-10-26T01:54:26.329Z,0
2017-10-26T01:55:27.746Z,0
2017-10-26T01:56:29.171Z,0
2017-10-26T01:57:30.597Z,0
2017-10-26T01:58:32.022Z,0
2017-10-26T01:59:33.447Z,0
2017-10-26T02:00:34.878Z,0
2017-10-26T02:01:36.298Z,0
2017-10-26T02:02:37.711Z,0
2017-10-26T02:03:39.132Z,0
2017-10-26T02:04:40.555Z,0
2017-10-26T02:05:42.623Z,0
2017-10-26T02:06:45.802Z,0
2017-10-26T02:07:47.219Z,0
2017-10-26T02:08:49.988Z,0
2017-10-26T02:09:51.406Z,0
2017-10-26T02:10:52.831Z,0
2017-10-26T02:11:54.251Z,0
2017-10-26T02:12:55.667Z,0
2017-10-26T02:13:57.085Z,0
2017-10-26T02:14:58.508Z,0
2017-10-26T02:15:59.932Z,0
2017-10-26T02:17:01.318Z,0
2017-10-26T02:18:02.741Z,0
2017-10-26T02:19:04.167Z,0
2017-10-26T02:20:05.581Z,0
2017-10-26T02:21:06.994Z,0
2017-10-26T02:22:08.415Z,0
2017-10-26T02:23:09.835Z,0
2017-10-26T02:24:11.261Z,0
2017-10-26T02:25:12.685Z,0
2017-10-26T02:26:14.100Z,0
2017-10-26T02:27:15.529Z,0
2017-10-26T02:28:16.955Z,0
2017-10-26T02:29:18.373Z,0
2017-10-26T02:30:19.794Z,0
2017-10-26T02:31:21.208Z,0
2017-10-26T02:32:22.637Z,0
2017-10-26T02:33:24.056Z,0
2017-10-26T02:34:25.485Z,0
2017-10-26T02:35:26.913Z,0
2017-10-26T02:36:28.337Z,0
2017-10-26T02:37:29.755Z,0
2017-10-26T02:38:31.172Z,0
2017-10-26T02:39:32.556Z,0
2017-10-26T02:40:33.971Z,0
2017-10-26T02:41:35.388Z,0
2017-10-26T02:42:36.817Z,0
2017-10-26T02:43:38.236Z,0
2017-10-26T02:44:39.666Z,0
2017-10-26T02:45:41.085Z,0
2017-10-26T02:46:42.501Z,0
2017-10-26T02:47:43.924Z,0
2017-10-26T02:48:45.334Z,0
2017-10-26T02:49:47.296Z,0
2017-10-26T02:50:48.720Z,0
2017-10-26T02:51:50.140Z,0
2017-10-26T02:52:51.559Z,0
2017-10-26T02:53:52.987Z,0
2017-10-26T02:54:54.407Z,0
2017-10-26T02:55:55.827Z,0
2017-10-26T02:56:57.295Z,0
2017-10-26T02:57:58.710Z,0
2017-10-26T02:59:00.135Z,0
2017-10-26T03:00:01.559Z,0
2017-10-26T03:01:03.067Z,0
2017-10-26T03:02:04.488Z,0
2017-10-26T03:03:05.902Z,0
2017-10-26T03:04:07.326Z,0
2017-10-26T03:05:08.752Z,0
2017-10-26T03:06:10.162Z,0
2017-10-26T03:07:11.617Z,0
2017-10-26T03:08:13.034Z,0
2017-10-26T03:09:14.445Z,0
2017-10-26T03:10:15.868Z,0
2017-10-26T03:11:17.291Z,0
2017-10-26T03:12:20.962Z,0
2017-10-26T03:13:22.414Z,0
2017-10-26T03:14:23.840Z,0
2017-10-26T03:15:25.267Z,0
2017-10-26T03:16:29.169Z,0
2017-10-26T03:17:30.594Z,0
2017-10-26T03:18:32.008Z,0
2017-10-26T03:19:33.426Z,0
2017-10-26T03:20:34.851Z,0
2017-10-26T03:21:36.261Z,0
2017-10-26T03:22:37.683Z,0
2017-10-26T03:23:39.115Z,0
2017-10-26T03:24:40.535Z,0
2017-10-26T03:25:41.947Z,0
2017-10-26T03:26:43.369Z,0
2017-10-26T03:27:44.790Z,0
2017-10-26T03:28:46.206Z,0
2017-10-26T03:29:47.619Z,0
2017-10-26T03:30:49.043Z,0
2017-10-26T03:31:50.464Z,0
2017-10-26T03:32:51.884Z,0
2017-10-26T03:33:53.306Z,0
2017-10-26T03:34:54.740Z,0
2017-10-26T03:35:56.164Z,0
2017-10-26T03:36:57.590Z,0
2017-10-26T03:37:59.015Z,0
2017-10-26T03:39:00.435Z,0
2017-10-26T03:40:01.855Z,0
2017-10-26T03:41:03.279Z,0
2017-10-26T03:42:04.705Z,0
2017-10-26T03:43:06.128Z,0
2017-10-26T03:44:07.555Z,0
2017-10-26T03:45:08.973Z,0
2017-10-26T03:46:10.396Z,0
2017-10-26T03:47:11.817Z,0
2017-10-26T03:48:13.236Z,0
2017-10-26T03:49:14.693Z,0
2017-10-26T03:50:16.117Z,0
2017-10-26T03:51:17.531Z,0
2017-10-26T03:52:18.954Z,0
2017-10-26T03:53:20.391Z,0
2017-10-26T03:54:21.801Z,0
2017-10-26T03:55:23.224Z,0
2017-10-26T03:56:24.642Z,0
2017-10-26T03:57:26.068Z,0
2017-10-26T03:58:27.499Z,0
2017-10-26T03:59:28.924Z,0
2017-10-26T04:00:30.342Z,0
2017-10-26T04:01:31.777Z,0
2017-10-26T04:02:33.186Z,0
2017-10-26T04:03:34.602Z,0
2017-10-26T04:04:36.015Z,0
2017-10-26T04:05:37.438Z,0
2017-10-26T04:06:38.857Z,0
2017-10-26T04:07:40.316Z,0
2017-10-26T04:08:41.739Z,0
2017-10-26T04:09:43.155Z,0
2017-10-26T04:10:44.581Z,0
2017-10-26T04:11:46.004Z,0
2017-10-26T04:12:47.423Z,0
2017-10-26T04:13:48.878Z,0
2017-10-26T04:14:50.304Z,0
2017-10-26T04:15:51.715Z,0
2017-10-26T04:16:53.136Z,0
2017-10-26T04:17:54.555Z,0
2017-10-26T04:18:55.972Z,0
2017-10-26T04:19:57.393Z,0
2017-10-26T04:20:58.846Z,0
2017-10-26T04:22:00.267Z,0
2017-10-26T04:23:01.707Z,0
2017-10-26T04:24:03.133Z,0
2017-10-26T04:25:04.561Z,0
2017-10-26T04:26:05.976Z,0
2017-10-26T04:27:07.406Z,0
2017-10-26T04:28:08.822Z,0
2017-10-26T04:29:10.234Z,0
2017-10-26T04:30:11.658Z,0
2017-10-26T04:31:13.091Z,0
2017-10-26T04:32:14.502Z,0
2017-10-26T04:33:15.924Z,0
2017-10-26T04:34:17.344Z,0
2017-10-26T04:35:18.763Z,0
2017-10-26T04:36:20.185Z,0
2017-10-26T04:37:21.621Z,0
2017-10-26T04:38:23.042Z,0
2017-10-26T04:39:24.464Z,0
2017-10-26T04:40:25.884Z,0
2017-10-26T04:41:27.301Z,0
2017-10-26T04:42:28.718Z,0
2017-10-26T04:43:30.141Z,0
2017-10-26T04:44:32.856Z,0
2017-10-26T04:45:34.528Z,0
2017-10-26T04:46:35.948Z,0
2017-10-26T04:47:37.361Z,0
2017-10-26T04:48:38.781Z,0
2017-10-26T04:49:40.202Z,0
2017-10-26T04:50:41.622Z,0
2017-10-26T04:51:43.044Z,0
2017-10-26T04:52:44.466Z,0
2017-10-26T04:53:45.889Z,0
2017-10-26T04:54:47.300Z,0
2017-10-26T04:55:48.721Z,0
2017-10-26T04:56:50.150Z,0
2017-10-26T04:57:51.560Z,0
2017-10-26T04:58:52.980Z,0
2017-10-26T04:59:54.399Z,0
2017-10-26T05:00:55.810Z,0
2017-10-26T05:01:57.235Z,0
2017-10-26T05:02:58.654Z,0
2017-10-26T05:04:00.073Z,0
2017-10-26T05:05:01.492Z,0
2017-10-26T05:06:02.911Z,0
2017-10-26T05:07:04.329Z,0
2017-10-26T05:08:05.763Z,0
2017-10-26T05:09:07.175Z,0
2017-10-26T05:10:08.614Z,0
2017-10-26T05:11:10.014Z,0
2017-10-26T05:12:11.432Z,0
2017-10-26T05:13:12.863Z,0
2017-10-26T05:14:14.315Z,0
2017-10-26T05:15:15.740Z,0
2017-10-26T05:16:17.156Z,0
2017-10-26T05:17:19.489Z,0
2017-10-26T05:18:20.903Z,0
2017-10-26T05:19:22.323Z,0
2017-10-26T05:20:23.746Z,0
2017-10-26T05:21:25.166Z,0
2017-10-26T05:22:26.583Z,0
2017-10-26T05:23:28.006Z,0
2017-10-26T05:24:29.432Z,0
2017-10-26T05:25:30.843Z,0
2017-10-26T05:26:32.272Z,0
2017-10-26T05:27:33.702Z,0
2017-10-26T05:28:35.125Z,0
2017-10-26T05:29:36.552Z,0
2017-10-26T05:30:37.975Z,0
2017-10-26T05:31:39.485Z,0
2017-10-26T05:32:40.905Z,0
2017-10-26T05:33:42.318Z,0
2017-10-26T05:34:43.745Z,0
2017-10-26T05:35:45.165Z,0
2017-10-26T05:36:46.586Z,0
2017-10-26T05:37:48.006Z,0
2017-10-26T05:38:49.424Z,0
2017-10-26T05:39:50.840Z,0
2017-10-26T05:40:52.254Z,0
2017-10-26T05:41:53.673Z,0
2017-10-26T05:42:55.098Z,0
2017-10-26T05:43:56.509Z,0
2017-10-26T05:44:57.934Z,0
2017-10-26T05:45:59.359Z,0
2017-10-26T05:47:00.779Z,0
2017-10-26T05:48:02.208Z,0
2017-10-26T05:49:03.618Z,0
2017-10-26T05:50:05.036Z,0
2017-10-26T05:51:06.454Z,0
2017-10-26T05:52:07.863Z,0
2017-10-26T05:53:09.288Z,0
2017-10-26T05:54:10.711Z,0
2017-10-26T05:55:12.135Z,0
2017-10-26T05:56:13.560Z,0
2017-10-26T05:57:14.978Z,0
2017-10-26T05:58:16.397Z,0
2017-10-26T05:59:17.817Z,0
2017-10-26T06:00:19.235Z,0
2017-10-26T06:01:20.663Z,0
2017-10-26T06:02:22.072Z,0
2017-10-26T06:03:23.490Z,0
2017-10-26T06:04:24.903Z,0
2017-10-26T06:05:26.330Z,0
2017-10-26T06:06:27.741Z,0
2017-10-26T06:07:29.163Z,0
2017-10-26T06:08:30.577Z,0
2017-10-26T06:09:32.000Z,0
2017-10-26T06:10:33.416Z,0
2017-10-26T06:11:34.831Z,0
2017-10-26T06:12:36.253Z,0
2017-10-26T06:13:37.677Z,0
2017-10-26T06:14:39.104Z,0
2017-10-26T06:15:40.527Z,0
2017-10-26T06:16:41.942Z,0
2017-10-26T06:17:43.369Z,0
2017-10-26T06:18:44.879Z,0
2017-10-26T06:19:46.310Z,0
2017-10-26T06:20:47.754Z,0
2017-10-26T06:21:49.161Z,0
2017-10-26T06:22:50.579Z,0
2017-10-26T06:23:52.007Z,0
2017-10-26T06:24:53.437Z,0
2017-10-26T06:25:54.854Z,0
2017-10-26T06:26:56.287Z,0
2017-10-26T06:27:57.708Z,0
2017-10-26T06:28:59.131Z,0
2017-10-26T06:30:01.147Z,0
2017-10-26T06:31:02.567Z,0
2017-10-26T06:32:03.985Z,5
2017-10-26T06:33:05.401Z,5
2017-10-26T06:34:06.820Z,5
2017-10-26T06:35:08.261Z,5
2017-10-26T06:36:09.688Z,5
2017-10-26T06:37:11.110Z,5
2017-10-26T06:38:12.524Z,5
2017-10-26T06:39:13.947Z,5
2017-10-26T06:40:15.365Z,5
2017-10-26T06:41:16.793Z,5
2017-10-26T06:42:18.210Z,5
2017-10-26T06:43:19.646Z,5
2017-10-26T06:44:21.075Z,5
2017-10-26T06:45:22.497Z,5
2017-10-26T06:46:23.920Z,5
2017-10-26T06:47:25.335Z,5
2017-10-26T06:48:26.759Z,5
2017-10-26T06:49:28.182Z,5
2017-10-26T06:50:29.565Z,5
2017-10-26T06:51:30.984Z,5
2017-10-26T06:52:32.407Z,5
2017-10-26T06:53:33.842Z,5
2017-10-26T06:54:35.258Z,5
2017-10-26T06:55:36.688Z,5
2017-10-26T06:56:38.113Z,5
2017-10-26T06:57:39.559Z,10
2017-10-26T06:58:40.980Z,10
2017-10-26T06:59:42.405Z,10
2017-10-26T07:00:43.910Z,10
2017-10-26T07:01:45.333Z,10
2017-10-26T07:02:46.769Z,15
2017-10-26T07:03:48.201Z,15
2017-10-26T07:04:49.624Z,15
2017-10-26T07:05:51.047Z,15
2017-10-26T07:06:52.471Z,15
2017-10-26T07:07:53.896Z,15
2017-10-26T07:08:55.320Z,15
2017-10-26T07:09:56.737Z,15
2017-10-26T07:10:58.152Z,15
2017-10-26T07:11:59.582Z,15
2017-10-26T07:13:01.013Z,15
2017-10-26T07:14:02.450Z,15
2017-10-26T07:15:03.870Z,15
2017-10-26T07:16:05.300Z,15
2017-10-26T07:17:06.729Z,15
2017-10-26T07:18:08.123Z,10
2017-10-26T07:19:09.545Z,10
2017-10-26T07:20:10.971Z,10
2017-10-26T07:21:12.400Z,15
2017-10-26T07:22:13.830Z,15
2017-10-26T07:23:15.267Z,15
2017-10-26T07:24:16.691Z,15
2017-10-26T07:25:18.107Z,15
2017-10-26T07:26:19.530Z,15
2017-10-26T07:27:20.953Z,15
2017-10-26T07:28:22.380Z,15
2017-10-26T07:29:23.801Z,15
2017-10-26T07:30:25.231Z,15
2017-10-26T07:31:26.717Z,15
2017-10-26T07:32:28.142Z,15
2017-10-26T07:33:29.569Z,15
2017-10-26T07:34:30.995Z,20
2017-10-26T07:35:32.430Z,15
2017-10-26T07:36:33.863Z,20
2017-10-26T07:37:35.290Z,20
2017-10-26T07:38:36.709Z,25
2017-10-26T07:39:38.139Z,25
2017-10-26T07:40:39.575Z,30
2017-10-26T07:41:41.001Z,30
2017-10-26T07:42:42.437Z,30
2017-10-26T07:43:43.866Z,30
2017-10-26T07:44:45.297Z,30
2017-10-26T07:45:46.725Z,30
2017-10-26T07:46:48.148Z,25
2017-10-26T07:47:49.570Z,25
2017-10-26T07:48:51.049Z,25
2017-10-26T07:49:52.475Z,20
2017-10-26T07:50:53.899Z,25
2017-10-26T07:51:55.328Z,35
2017-10-26T07:52:56.750Z,40
2017-10-26T07:53:58.182Z,45
2017-10-26T07:54:59.600Z,50
2017-10-26T07:56:01.025Z,45
2017-10-26T07:57:02.465Z,45
2017-10-26T07:58:03.886Z,45
2017-10-26T07:59:05.310Z,40
2017-10-26T08:00:06.744Z,30
2017-10-26T08:01:08.167Z,25
2017-10-26T08:02:09.595Z,30
2017-10-26T08:03:11.023Z,30
2017-10-26T08:04:12.448Z,30
2017-10-26T08:05:13.882Z,25
2017-10-26T08:06:15.307Z,30
2017-10-26T08:07:16.731Z,25
2017-10-26T08:08:18.158Z,20
2017-10-26T08:09:19.583Z,25
2017-10-26T08:10:20.998Z,25
2017-10-26T08:11:22.437Z,30
2017-10-26T08:12:23.869Z,25
2017-10-26T08:13:25.297Z,25
2017-10-26T08:14:27.523Z,20
2017-10-26T08:15:28.948Z,25
2017-10-26T08:16:30.377Z,25
2017-10-26T08:17:31.792Z,25
2017-10-26T08:18:33.218Z,25
2017-10-26T08:19:34.659Z,30
2017-10-26T08:20:36.086Z,40
2017-10-26T08:21:37.511Z,40
2017-10-26T08:22:38.924Z,40
2017-10-26T08:23:40.351Z,35
2017-10-26T08:24:41.793Z,35
2017-10-26T08:25:43.214Z,40
2017-10-26T08:26:44.649Z,30
2017-10-26T08:27:46.069Z,30
2017-10-26T08:28:47.493Z,30
2017-10-26T08:29:48.959Z,40
2017-10-26T08:30:50.390Z,45
2017-10-26T08:31:51.827Z,40
2017-10-26T08:32:53.256Z,40
2017-10-26T08:33:54.683Z,35
2017-10-26T08:34:56.120Z,40
2017-10-26T08:35:57.544Z,45
2017-10-26T08:36:59.084Z,40
2017-10-26T08:38:00.504Z,40
2017-10-26T08:39:01.924Z,40
2017-10-26T08:40:03.356Z,45
2017-10-26T08:41:04.887Z,40
2017-10-26T08:42:06.330Z,40
2017-10-26T08:43:07.763Z,45
2017-10-26T08:44:09.196Z,40
2017-10-26T08:45:10.638Z,40
2017-10-26T08:46:12.059Z,40
2017-10-26T08:47:13.477Z,35
2017-10-26T08:48:14.908Z,45
2017-10-26T08:49:16.327Z,40
2017-10-26T08:50:17.753Z,45
2017-10-26T08:51:19.182Z,55
2017-10-26T08:52:20.611Z,50
2017-10-26T08:53:22.039Z,55
2017-10-26T08:54:23.474Z,55
2017-10-26T08:55:24.904Z,55
2017-10-26T08:56:26.324Z,70
2017-10-26T08:57:27.755Z,70
2017-10-26T08:58:29.180Z,55
2017-10-26T08:59:30.605Z,65
2017-10-26T09:00:32.051Z,60
2017-10-26T09:01:33.481Z,70
2017-10-26T09:02:34.898Z,75
2017-10-26T09:03:36.870Z,65
2017-10-26T09:04:38.283Z,60
2017-10-26T09:05:39.708Z,55
2017-10-26T09:06:41.131Z,65
2017-10-26T09:07:42.543Z,65
2017-10-26T09:08:43.986Z,60
2017-10-26T09:09:45.395Z,70
2017-10-26T09:10:46.828Z,60
2017-10-26T09:11:48.259Z,60
2017-10-26T09:12:49.705Z,65
2017-10-26T09:13:51.132Z,90
2017-10-26T09:14:52.566Z,115
2017-10-26T09:15:53.992Z,100
2017-10-26T09:16:55.424Z,85
2017-10-26T09:17:56.852Z,80
2017-10-26T09:18:58.285Z,95
2017-10-26T09:19:59.718Z,70
2017-10-26T09:21:01.151Z,70
2017-10-26T09:22:02.580Z,70
2017-10-26T09:23:04.002Z,60
2017-10-26T09:24:06.167Z,50
2017-10-26T09:25:07.586Z,45
2017-10-26T09:26:09.010Z,50
2017-10-26T09:27:10.433Z,60
2017-10-26T09:28:11.864Z,65
2017-10-26T09:29:13.287Z,60
2017-10-26T09:30:14.712Z,75
2017-10-26T09:31:16.137Z,65
2017-10-26T09:32:17.569Z,75
2017-10-26T09:33:18.988Z,100
2017-10-26T09:34:20.417Z,80
2017-10-26T09:35:21.851Z,85
2017-10-26T09:36:23.283Z,75
2017-10-26T09:37:24.715Z,75
2017-10-26T09:38:26.154Z,95
2017-10-26T09:39:27.577Z,110
2017-10-26T09:40:29.003Z,100
2017-10-26T09:41:30.439Z,95
2017-10-26T09:42:31.866Z,100
2017-10-26T09:43:33.297Z,75
2017-10-26T09:44:34.726Z,65
2017-10-26T09:45:36.147Z,70
2017-10-26T09:46:37.567Z,95
2017-10-26T09:47:39.030Z,85
2017-10-26T09:48:40.448Z,85
2017-10-26T09:49:41.882Z,85
2017-10-26T09:50:43.315Z,95
2017-10-26T09:51:44.754Z,130
2017-10-26T09:52:46.184Z,145
2017-10-26T09:53:47.608Z,160
2017-10-26T09:54:49.053Z,145
2017-10-26T09:55:52.821Z,115
2017-10-26T09:56:54.305Z,130
2017-10-26T09:57:55.732Z,105
2017-10-26T09:58:57.148Z,110
2017-10-26T09:59:58.568Z,125
2017-10-26T10:01:00.003Z,130
2017-10-26T10:02:01.418Z,105
2017-10-26T10:03:02.857Z,125
2017-10-26T10:04:04.261Z,135
2017-10-26T10:05:31.601Z,150
2017-10-26T10:06:48.598Z,135
2017-10-26T10:07:49.044Z,165
2017-10-26T10:08:50.488Z,175
2017-10-26T10:09:51.931Z,145
2017-10-26T10:10:53.367Z,105
2017-10-26T10:11:54.794Z,105
2017-10-26T10:12:56.223Z,125
2017-10-26T10:14:22.108Z,130
2017-10-26T10:15:29.614Z,100
2017-10-26T10:16:30.074Z,55
2017-10-26T10:17:31.515Z,55
2017-10-26T10:18:32.928Z,65
2017-10-26T10:19:34.355Z,55
2017-10-26T10:20:35.779Z,55
2017-10-26T10:21:37.178Z,55
2017-10-26T10:22:38.598Z,65
2017-10-26T10:23:40.028Z,55
2017-10-26T10:24:41.452Z,35
2017-10-26T10:25:42.880Z,55
2017-10-26T10:26:44.307Z,55
2017-10-26T10:27:45.727Z,65
2017-10-26T10:28:47.151Z,95
2017-10-26T10:29:48.575Z,165
2017-10-26T10:30:50.005Z,155
2017-10-26T10:31:51.456Z,175
2017-10-26T10:32:52.877Z,245
2017-10-26T10:33:54.309Z,300
2017-10-26T10:34:55.740Z,205
2017-10-26T10:35:57.167Z,135
2017-10-26T10:36:58.589Z,125
2017-10-26T10:38:00.022Z,160
2017-10-26T10:39:01.442Z,195
2017-10-26T10:40:02.868Z,215
2017-10-26T10:41:04.293Z,195
2017-10-26T10:42:05.723Z,200
2017-10-26T10:43:07.157Z,220
2017-10-26T10:44:08.589Z,230
2017-10-26T10:45:10.018Z,220
2017-10-26T10:46:11.447Z,185
2017-10-26T10:47:12.881Z,165
2017-10-26T10:48:14.313Z,145
2017-10-26T10:49:15.742Z,125
2017-10-26T10:50:17.183Z,120
2017-10-26T10:51:18.612Z,165
2017-10-26T10:52:20.040Z,265
2017-10-26T10:53:21.483Z,225
2017-10-26T10:54:22.905Z,210
2017-10-26T10:55:24.336Z,250
2017-10-26T10:56:25.774Z,210
2017-10-26T10:57:27.205Z,175
2017-10-26T10:58:28.634Z,150
2017-10-26T10:59:30.112Z,165
2017-10-26T11:00:31.546Z,125
2017-10-26T11:01:32.970Z,105
2017-10-26T11:02:34.404Z,120
2017-10-26T11:03:35.844Z,140
2017-10-26T11:04:37.266Z,150
2017-10-26T11:05:38.704Z,140
2017-10-26T11:06:40.133Z,130
2017-10-26T11:07:41.554Z,95
2017-10-26T11:08:42.979Z,110
2017-10-26T11:09:44.405Z,115
2017-10-26T11:10:45.830Z,150
2017-10-26T11:11:47.247Z,150
2017-10-26T11:12:48.686Z,160
2017-10-26T11:13:50.099Z,85
2017-10-26T11:14:51.528Z,60
2017-10-26T11:15:52.945Z,70
2017-10-26T11:16:54.387Z,105
2017-10-26T11:17:55.809Z,100
2017-10-26T11:18:57.237Z,115
2017-10-26T11:19:58.657Z,135
2017-10-26T11:21:00.090Z,150
2017-10-26T11:22:01.522Z,180
2017-10-26T11:23:02.956Z,280
2017-10-26T11:24:04.388Z,290
2017-10-26T11:25:05.828Z,300
2017-10-26T11:26:07.253Z,315
2017-10-26T11:27:08.678Z,190
2017-10-26T11:28:10.123Z,220
2017-10-26T11:29:11.552Z,260
2017-10-26T11:30:12.994Z,295
2017-10-26T11:31:14.419Z,225
2017-10-26T11:32:15.843Z,215
2017-10-26T11:33:17.268Z,270
2017-10-26T11:34:18.705Z,215
2017-10-26T11:35:20.135Z,255
2017-10-26T11:36:21.579Z,265
2017-10-26T11:37:22.999Z,235
2017-10-26T11:38:24.417Z,380
2017-10-26T11:39:25.848Z,405
2017-10-26T11:40:27.296Z,440
2017-10-26T11:41:28.736Z,510
2017-10-26T11:42:30.171Z,465
2017-10-26T11:43:31.604Z,525
2017-10-26T11:44:33.037Z,1125
2017-10-26T11:45:34.467Z,1945
2017-10-26T11:46:35.897Z,1755
2017-10-26T11:47:37.335Z,1410
2017-10-26T11:48:38.775Z,525
2017-10-26T11:49:40.216Z,520
2017-10-26T11:50:41.647Z,285
2017-10-26T11:51:43.072Z,175
2017-10-26T11:52:44.462Z,180
2017-10-26T11:53:45.900Z,340
2017-10-26T11:54:47.330Z,1035
2017-10-26T11:55:48.845Z,2440
2017-10-26T11:56:50.292Z,1765
2017-10-26T11:57:51.720Z,1340
2017-10-26T11:58:53.196Z,1915
2017-10-26T11:59:54.646Z,1805
2017-10-26T12:00:56.072Z,400
2017-10-26T12:01:57.516Z,150
2017-10-26T12:02:58.952Z,350
2017-10-26T12:04:00.389Z,465
2017-10-26T12:05:01.818Z,410
2017-10-26T12:06:03.267Z,1475
2017-10-26T12:07:04.696Z,2360
2017-10-26T12:08:06.133Z,1860
2017-10-26T12:09:07.558Z,1520
2017-10-26T12:10:09.000Z,545
2017-10-26T12:11:10.441Z,2790
2017-10-26T12:12:11.878Z,1550
2017-10-26T12:13:13.314Z,895
2017-10-26T12:14:14.748Z,405
2017-10-26T12:15:16.186Z,2215
2017-10-26T12:16:17.617Z,670
2017-10-26T12:17:19.047Z,2820
2017-10-26T12:18:20.476Z,560
2017-10-26T12:19:21.912Z,2970
2017-10-26T12:20:23.336Z,3295
2017-10-26T12:21:24.770Z,95
2017-10-26T12:22:26.206Z,2980
2017-10-26T12:23:27.653Z,2925
2017-10-26T12:24:29.085Z,2675
2017-10-26T12:25:30.515Z,1575
2017-10-26T12:26:31.955Z,1675
2017-10-26T12:27:33.381Z,1490
2017-10-26T12:28:34.819Z,290
2017-10-26T12:29:36.253Z,210
2017-10-26T12:30:37.697Z,275
2017-10-26T12:31:39.130Z,335
2017-10-26T12:32:40.562Z,1200
2017-10-26T12:33:41.984Z,1295
2017-10-26T12:34:43.421Z,1930
2017-10-26T12:35:44.863Z,1380
2017-10-26T12:36:46.295Z,1270
2017-10-26T12:37:47.726Z,695
2017-10-26T12:38:49.155Z,1250
2017-10-26T12:39:50.598Z,1625
2017-10-26T12:40:52.033Z,230
2017-10-26T12:41:53.470Z,330
2017-10-26T12:42:54.917Z,180
2017-10-26T12:43:57.220Z,1655
2017-10-26T12:44:58.665Z,1220
2017-10-26T12:46:00.103Z,1685
2017-10-26T12:47:01.528Z,2310
2017-10-26T12:48:02.964Z,2240
2017-10-26T12:49:04.397Z,2835
2017-10-26T12:50:05.841Z,2845
2017-10-26T12:51:07.270Z,1790
2017-10-26T12:52:08.699Z,1015
2017-10-26T12:53:10.135Z,1420
2017-10-26T12:54:11.579Z,1255
2017-10-26T12:55:13.017Z,725
2017-10-26T12:56:14.450Z,220
2017-10-26T12:57:15.888Z,655
2017-10-26T12:58:17.324Z,1305
2017-10-26T12:59:18.766Z,1580
2017-10-26T13:00:20.187Z,250
2017-10-26T13:01:21.624Z,1400
2017-10-26T13:02:23.061Z,240
2017-10-26T13:03:24.492Z,550
2017-10-26T13:04:25.925Z,385
2017-10-26T13:05:27.353Z,140
2017-10-26T13:06:28.799Z,180
2017-10-26T13:07:30.224Z,330
2017-10-26T13:08:31.677Z,2710
2017-10-26T13:09:33.129Z,2590
2017-10-26T13:10:34.564Z,3025
2017-10-26T13:11:36.029Z,485
2017-10-26T13:12:37.481Z,270
2017-10-26T13:13:38.911Z,195
2017-10-26T13:14:40.334Z,155
2017-10-26T13:15:41.770Z,160
2017-10-26T13:16:43.206Z,220
2017-10-26T13:17:44.638Z,175
2017-10-26T13:18:46.132Z,145
2017-10-26T13:19:47.569Z,205
2017-10-26T13:20:48.998Z,155
2017-10-26T13:21:50.426Z,150
2017-10-26T13:22:51.855Z,340
2017-10-26T13:23:53.311Z,270
2017-10-26T13:24:54.735Z,220
2017-10-26T13:25:56.251Z,1840
2017-10-26T13:26:57.686Z,1495
2017-10-26T13:27:59.119Z,240
2017-10-26T13:29:00.587Z,305
2017-10-26T13:30:02.021Z,210
2017-10-26T13:31:03.463Z,235
2017-10-26T13:32:04.897Z,1080
2017-10-26T13:33:06.458Z,225
2017-10-26T13:34:07.894Z,190
2017-10-26T13:35:09.332Z,295
2017-10-26T13:36:10.791Z,250
2017-10-26T13:37:12.216Z,310
2017-10-26T13:38:13.646Z,430
2017-10-26T13:39:15.085Z,980
2017-10-26T13:40:16.516Z,145
2017-10-26T13:41:17.951Z,695
2017-10-26T13:42:19.386Z,495
2017-10-26T13:43:20.848Z,490
2017-10-26T13:44:22.280Z,1430
2017-10-26T13:45:23.805Z,1500
2017-10-26T13:46:25.236Z,1705
2017-10-26T13:47:26.667Z,1520
2017-10-26T13:48:28.138Z,1275
2017-10-26T13:49:29.583Z,1210
2017-10-26T13:50:31.017Z,1600
2017-10-26T13:51:32.465Z,1440
2017-10-26T13:52:33.904Z,1385
2017-10-26T13:53:35.349Z,1655
2017-10-26T13:54:36.779Z,900
2017-10-26T13:55:38.217Z,330
2017-10-26T13:56:39.653Z,250
2017-10-26T13:57:41.106Z,250
2017-10-26T13:58:42.539Z,250
2017-10-26T13:59:43.975Z,235
2017-10-26T14:00:45.537Z,240
2017-10-26T14:01:46.980Z,225
2017-10-26T14:02:48.415Z,240
2017-10-26T14:03:49.849Z,240
2017-10-26T14:04:51.308Z,250
2017-10-26T14:05:52.746Z,195
2017-10-26T14:06:54.184Z,165
2017-10-26T14:07:55.623Z,195
2017-10-26T14:08:57.052Z,160
2017-10-26T14:09:58.539Z,150
2017-10-26T14:10:59.963Z,160
2017-10-26T14:12:01.443Z,160
2017-10-26T14:13:02.874Z,170
2017-10-26T14:14:04.321Z,170
2017-10-26T14:15:05.831Z,160
2017-10-26T14:16:07.262Z,145
2017-10-26T14:17:09.386Z,135
2017-10-26T14:18:10.818Z,120
2017-10-26T14:19:12.247Z,105
2017-10-26T14:20:13.677Z,100
2017-10-26T14:21:15.113Z,100
2017-10-26T14:22:16.535Z,90
2017-10-26T14:23:17.969Z,90
2017-10-26T14:24:19.401Z,85
2017-10-26T14:25:20.830Z,70
2017-10-26T14:26:22.262Z,65
2017-10-26T14:27:23.687Z,75
2017-10-26T14:28:25.141Z,70
2017-10-26T14:29:26.568Z,60
2017-10-26T14:30:27.997Z,45
2017-10-26T14:31:29.432Z,50
2017-10-26T14:32:30.864Z,40
2017-10-26T14:33:32.290Z,45
2017-10-26T14:34:33.722Z,55
2017-10-26T14:35:35.139Z,65
2017-10-26T14:36:36.567Z,60
2017-10-26T14:37:37.999Z,55
2017-10-26T14:38:39.422Z,50
2017-10-26T14:39:40.856Z,45
2017-10-26T14:40:42.284Z,50